»·PEaware :: N701GT KPSP-KFLG

N701GT :: KPSP-KFLG

FLIGHT INFORMATION

Flight Status: Arrived
Operator: Privately registered:
United States
More flights under this callsign
Pilot: Anonymous 17564 (17564)
Aircraft: CESSNA 310
(C310)
More flights by this aircraft type
Origin: KPSP Palm Springs Intl
United States
Destination: KFLG Flagstaff Pulliam
United States
More flights between these airports :: More routes between these airports
Route: CATH1 TNP V208 EED V12 JUWSO
File this flight plan on PilotEdge
Remarks:
Altitude:
(Current/Filed)
11,000ft
Speed:
(Current/Filed)
180kts
Departed: 25-Jun-18 02:12 PM
Arrived: 25-Jun-18 03:51 PM
Distance/Time
Traveled:
252nm/1:39
Distance/Time
To Go:
Arrived

Flight Plot

Page will automatically refresh every two minutes.


Map Options




Map Legend


Flown Route
Filed Route
Departure Airport
Arrival Airport
Navaid (VOR, NDB)
Fix

Horizontal Profiles

Position Reports

Time Latitude Longitude Heading Altitude Ground
Speed
25-Jun-18 13:55 33.823287 -116.497526 51 480ft 0kts
25-Jun-18 13:56 33.823287 -116.497526 51 480ft 0kts
25-Jun-18 13:57 33.823287 -116.497526 51 480ft 0kts
25-Jun-18 13:58 33.823287 -116.497526 51 480ft 0kts
25-Jun-18 13:59 33.823287 -116.497526 51 480ft 0kts
25-Jun-18 14:00 33.823287 -116.497526 51 480ft 0kts
25-Jun-18 14:01 33.823287 -116.497526 51 480ft 0kts
25-Jun-18 14:02 33.823287 -116.497526 51 480ft 0kts
25-Jun-18 14:03 33.823287 -116.497526 51 480ft 0kts
25-Jun-18 14:04 33.823287 -116.497526 51 480ft 0kts
25-Jun-18 14:05 33.823287 -116.497526 51 480ft 0kts
25-Jun-18 14:06 33.823287 -116.497526 51 480ft 0kts
25-Jun-18 14:07 33.823287 -116.497526 51 480ft 0kts
25-Jun-18 14:08 33.823287 -116.497526 51 480ft 0kts
25-Jun-18 14:09 33.823177 -116.497524 247 480ft 1kts
25-Jun-18 14:10 33.824669 -116.499529 234 480ft 0kts
25-Jun-18 14:11 33.824669 -116.499529 234 480ft 0kts
25-Jun-18 14:12 33.831910 -116.506789 322 532ft 109kts
25-Jun-18 14:13 33.863069 -116.534106 322 1653ft 154kts
25-Jun-18 14:14 33.900140 -116.555966 27 2951ft 154kts
25-Jun-18 14:15 33.903942 -116.510390 99 4249ft 141kts
25-Jun-18 14:16 33.891267 -116.465163 117 5561ft 145kts
25-Jun-18 14:17 33.870838 -116.422733 118 6870ft 145kts
25-Jun-18 14:18 33.851937 -116.377999 118 8192ft 149kts
25-Jun-18 14:19 33.832863 -116.333137 117 9476ft 146kts
25-Jun-18 14:20 33.814689 -116.290669 118 10750ft 135kts
25-Jun-18 14:21 33.795033 -116.245638 127 11016ft 173kts
25-Jun-18 14:22 33.759237 -116.264483 274 10988ft 195kts
25-Jun-18 14:23 33.793540 -116.315350 311 11002ft 197kts
25-Jun-18 14:24 33.827650 -116.367969 305 11012ft 196kts
25-Jun-18 14:25 33.872398 -116.394857 17 11013ft 191kts
25-Jun-18 14:26 33.903758 -116.347656 66 11040ft 187kts
25-Jun-18 14:27 33.925841 -116.289305 67 11033ft 189kts
25-Jun-18 14:28 33.946879 -116.232267 67 11066ft 188kts
25-Jun-18 14:29 33.968622 -116.173218 67 11075ft 190kts
25-Jun-18 14:30 33.990479 -116.113756 67 11063ft 190kts
25-Jun-18 14:31 34.011853 -116.055494 67 11082ft 188kts
25-Jun-18 14:32 34.033333 -115.996833 67 11092ft 190kts
25-Jun-18 14:33 34.055915 -115.937546 64 11096ft 191kts
25-Jun-18 14:34 34.079338 -115.878517 67 11097ft 191kts
25-Jun-18 14:35 34.101171 -115.818987 67 11074ft 190kts
25-Jun-18 14:36 34.123186 -115.762335 59 11093ft 186kts
25-Jun-18 14:37 34.148502 -115.713303 59 11091ft 192kts
25-Jun-18 14:38 34.177273 -115.657323 59 11077ft 192kts
25-Jun-18 14:39 34.205247 -115.602631 59 11084ft 190kts
25-Jun-18 14:40 34.233468 -115.547368 60 11063ft 187kts
25-Jun-18 14:41 34.260661 -115.494062 60 11051ft 184kts
25-Jun-18 14:42 34.287292 -115.441767 60 11070ft 183kts
25-Jun-18 14:43 34.314776 -115.387562 60 11059ft 186kts
25-Jun-18 14:44 34.341623 -115.334696 60 11080ft 184kts
25-Jun-18 14:45 34.369187 -115.280310 60 11070ft 188kts
25-Jun-18 14:46 34.397118 -115.225312 60 11065ft 189kts
25-Jun-18 14:47 34.425016 -115.169994 60 11035ft 187kts
25-Jun-18 14:48 34.451796 -115.117101 60 11065ft 184kts
25-Jun-18 14:49 34.479329 -115.062433 60 11067ft 189kts
25-Jun-18 14:50 34.507131 -115.007271 60 11062ft 189kts
25-Jun-18 14:51 34.534913 -114.951856 60 11056ft 189kts
25-Jun-18 14:52 34.562715 -114.896517 60 11054ft 190kts
25-Jun-18 14:53 34.590582 -114.840931 60 11038ft 189kts
25-Jun-18 14:54 34.617811 -114.786486 60 11022ft 186kts
25-Jun-18 14:55 34.644376 -114.733271 60 11043ft 185kts
25-Jun-18 14:56 34.671797 -114.678251 60 11040ft 190kts
25-Jun-18 14:57 34.699526 -114.622569 60 11018ft 188kts
25-Jun-18 14:58 34.726194 -114.568914 60 11041ft 185kts
25-Jun-18 14:59 34.753559 -114.513737 60 11047ft 190kts
25-Jun-18 15:00 34.771504 -114.454648 95 11025ft 184kts
25-Jun-18 15:01 34.770096 -114.393153 92 11020ft 180kts
25-Jun-18 15:02 34.768812 -114.332574 93 11041ft 180kts
25-Jun-18 15:03 34.767256 -114.270482 93 11047ft 185kts
25-Jun-18 15:04 34.765639 -114.206850 93 11028ft 184kts
25-Jun-18 15:05 34.764050 -114.145363 93 11035ft 180kts
25-Jun-18 15:06 34.762416 -114.084679 93 11068ft 182kts
25-Jun-18 15:07 34.760706 -114.021583 93 11078ft 186kts
25-Jun-18 15:08 34.758931 -113.957001 93 10949ft 193kts
25-Jun-18 15:09 34.757085 -113.890963 93 10827ft 190kts
25-Jun-18 15:10 34.755234 -113.826296 93 10818ft 186kts
25-Jun-18 15:11 34.753429 -113.764481 93 10828ft 181kts
25-Jun-18 15:12 34.751609 -113.703573 93 10861ft 183kts
25-Jun-18 15:13 34.749686 -113.639892 93 10859ft 186kts
25-Jun-18 15:14 34.747763 -113.577041 93 10868ft 184kts
25-Jun-18 15:15 34.745822 -113.514876 93 10893ft 185kts
25-Jun-18 15:16 34.743787 -113.450622 93 10902ft 189kts
25-Jun-18 15:17 34.741718 -113.386436 93 10894ft 186kts
25-Jun-18 15:18 34.739684 -113.324421 93 10926ft 185kts
25-Jun-18 15:19 34.737554 -113.260606 93 10919ft 186kts
25-Jun-18 15:20 34.735461 -113.198528 93 10930ft 182kts
25-Jun-18 15:21 34.733351 -113.137145 93 10960ft 183kts
25-Jun-18 15:22 34.731145 -113.073877 93 10958ft 185kts
25-Jun-18 15:23 34.728928 -113.011268 93 10973ft 184kts
25-Jun-18 15:24 34.726707 -112.948754 93 10990ft 186kts
25-Jun-18 15:25 34.724328 -112.884367 93 10980ft 187kts
25-Jun-18 15:26 34.738890 -112.824231 70 11000ft 187kts
25-Jun-18 15:27 34.757589 -112.764088 70 11004ft 189kts
25-Jun-18 15:28 34.776308 -112.703896 70 10999ft 188kts
25-Jun-18 15:29 34.794797 -112.644516 70 11010ft 185kts
25-Jun-18 15:30 34.813342 -112.584972 70 11016ft 189kts
25-Jun-18 15:31 34.832210 -112.523963 70 11016ft 191kts
25-Jun-18 15:32 34.850946 -112.462818 70 11019ft 191kts
25-Jun-18 15:33 34.869782 -112.401371 70 11020ft 192kts
25-Jun-18 15:34 34.888537 -112.340211 70 11013ft 189kts
25-Jun-18 15:35 34.906936 -112.280276 70 11027ft 189kts
25-Jun-18 15:36 34.925629 -112.219362 70 11006ft 188kts
25-Jun-18 15:37 34.943646 -112.160685 70 11030ft 183kts
25-Jun-18 15:38 34.961570 -112.102340 70 10599ft 176kts
25-Jun-18 15:39 34.977234 -112.050936 65 9075ft 155kts
25-Jun-18 15:40 35.000163 -112.016001 49 9024ft 121kts
25-Jun-18 15:41 35.028578 -111.973150 49 9066ft 189kts
25-Jun-18 15:42 35.063607 -111.922089 49 9059ft 199kts
25-Jun-18 15:43 35.099563 -111.870047 49 9074ft 198kts
25-Jun-18 15:44 35.134821 -111.818346 49 9092ft 197kts
25-Jun-18 15:45 35.158718 -111.756887 74 8686ft 216kts
25-Jun-18 15:46 35.183958 -111.695433 44 8611ft 187kts
25-Jun-18 15:47 35.214679 -111.659367 92 8365ft 114kts
25-Jun-18 15:48 35.195697 -111.630627 172 8105ft 131kts
25-Jun-18 15:49 35.163372 -111.644407 220 7507ft 129kts
25-Jun-18 15:50 35.141472 -111.667947 220 7014ft 53kts
25-Jun-18 15:51 35.141053 -111.669585 308 7014ft 11kts
25-Jun-18 15:52 35.138370 -111.673821 249 7014ft 13kts
25-Jun-18 15:53 35.138459 -111.674074 354 7014ft 0kts

Navigation Log

Ident Type
Flight plan parsing failed, navigation log unavailable